Time;durP1;ratioP1;P1;durP2;ratioP2;P2;SDS_P1;SDS_P2;PMS_P1;PMS_P2;Temp;Humidity;BMP_temperature;BMP_pressure;BME280_temperature;BME280_humidity;BME280_pressure;Samples;Min_cycle;Max_cycle;Signal;HPM_P1;HPM_P2
2022/12/26 00:01:45;;;;;;;10.52;6.82;;;11.40;99.90;;;;;;6199967;23;20013;-80
2022/12/26 00:04:11;;;;;;;9.52;6.32;;;11.40;99.90;;;;;;6222851;23;19997;-79
2022/12/26 00:06:37;;;;;;;9.98;5.93;;;11.40;99.90;;;;;;6197638;23;20040;-83
2022/12/26 00:09:05;;;;;;;12.52;6.57;;;11.40;99.90;;;;;;6225273;23;20000;-82
2022/12/26 00:11:31;;;;;;;9.25;5.13;;;11.40;99.90;;;;;;6221518;23;20009;-83
2022/12/26 00:14:00;;;;;;;8.68;5.90;;;11.50;99.90;;;;;;6197615;23;20015;-83
2022/12/26 00:16:26;;;;;;;11.40;6.75;;;11.50;99.90;;;;;;6197013;23;20219;-82
2022/12/26 00:18:52;;;;;;;12.43;6.80;;;11.50;99.90;;;;;;6194471;23;20035;-83
2022/12/26 00:21:18;;;;;;;7.35;5.80;;;11.50;99.90;;;;;;6198131;23;20004;-82
2022/12/26 00:23:45;;;;;;;9.23;5.70;;;11.50;99.90;;;;;;6228276;23;20333;-82
2022/12/26 00:26:16;;;;;;;8.25;5.60;;;11.60;99.90;;;;;;6197605;23;20031;-82
2022/12/26 00:28:42;;;;;;;10.55;5.78;;;11.50;99.90;;;;;;6197674;23;20059;-83
2022/12/26 00:31:16;;;;;;;12.65;6.20;;;11.60;99.90;;;;;;6222952;23;20001;-83
2022/12/26 00:33:42;;;;;;;8.20;5.65;;;11.50;99.90;;;;;;6223597;23;20007;-82
2022/12/26 00:36:12;;;;;;;8.88;5.43;;;11.50;99.90;;;;;;6226197;23;20000;-83
2022/12/26 00:38:39;;;;;;;9.18;6.10;;;11.50;99.90;;;;;;6199026;23;20016;-81
2022/12/26 00:41:05;;;;;;;7.05;5.60;;;11.50;99.90;;;;;;6196258;23;20008;-82
2022/12/26 00:43:32;;;;;;;7.53;5.18;;;11.40;99.90;;;;;;6197227;23;20008;-84
2022/12/26 00:45:57;;;;;;;9.18;5.78;;;11.50;99.90;;;;;;6196123;23;20001;-82
2022/12/26 00:48:23;;;;;;;10.55;6.13;;;11.40;99.90;;;;;;6226497;23;20058;-83
2022/12/26 00:50:49;;;;;;;7.53;4.78;;;11.50;99.90;;;;;;6196577;23;20047;-83
2022/12/26 00:53:14;;;;;;;9.82;4.93;;;11.50;99.90;;;;;;6225731;23;20005;-83
2022/12/26 00:55:40;;;;;;;9.52;5.25;;;11.50;99.90;;;;;;6197405;23;20040;-83
2022/12/26 00:58:05;;;;;;;9.60;5.90;;;11.50;99.90;;;;;;6196103;23;20008;-82
2022/12/26 01:00:31;;;;;;;9.82;5.47;;;11.40;99.90;;;;;;6194933;23;20001;-81
2022/12/26 01:02:57;;;;;;;7.45;5.75;;;11.40;99.90;;;;;;6197410;23;20008;-82
2022/12/26 01:05:22;;;;;;;7.88;5.30;;;11.40;99.90;;;;;;6192200;23;20001;-82
2022/12/26 01:07:48;;;;;;;9.13;6.32;;;11.30;99.90;;;;;;6193570;23;20183;-81
2022/12/26 01:10:14;;;;;;;11.63;6.70;;;11.30;99.90;;;;;;6193966;23;20379;-82
2022/12/26 01:12:39;;;;;;;11.95;6.07;;;11.30;99.90;;;;;;6192671;23;20004;-85
2022/12/26 01:15:06;;;;;;;8.85;5.97;;;11.30;99.90;;;;;;6199627;23;20005;-85
2022/12/26 01:17:32;;;;;;;7.28;5.70;;;11.20;99.90;;;;;;6222849;23;20360;-84
2022/12/26 01:19:58;;;;;;;7.00;5.82;;;11.20;99.90;;;;;;6213090;23;20399;-84
2022/12/26 01:22:25;;;;;;;9.85;6.20;;;11.20;99.90;;;;;;6212770;23;20000;-85
2022/12/26 01:24:54;;;;;;;10.27;6.47;;;11.20;99.90;;;;;;6185574;23;20507;-85
2022/12/26 01:27:21;;;;;;;10.27;6.60;;;11.10;99.90;;;;;;6184969;23;20012;-84
2022/12/26 01:29:46;;;;;;;9.73;6.13;;;11.10;99.90;;;;;;6213153;23;20155;-84
2022/12/26 01:32:12;;;;;;;9.10;6.30;;;11.10;99.90;;;;;;6185968;23;20012;-85
2022/12/26 01:34:38;;;;;;;13.00;7.07;;;11.10;99.90;;;;;;6215693;23;20001;-83
2022/12/26 01:37:03;;;;;;;8.15;6.32;;;11.10;99.90;;;;;;6212724;23;20011;-85
2022/12/26 01:39:29;;;;;;;9.15;6.43;;;11.00;99.90;;;;;;6184399;23;20071;-85
2022/12/26 01:41:55;;;;;;;11.65;7.07;;;11.10;99.90;;;;;;6211393;23;20306;-84
2022/12/26 01:44:58;;;;;;;16.08;7.00;;;11.00;99.90;;;;;;6187518;23;20005;-85
2022/12/26 01:47:38;;;;;;;10.95;6.63;;;11.00;99.90;;;;;;6223358;23;20051;-83
2022/12/26 01:50:06;;;;;;;8.90;6.10;;;11.00;99.90;;;;;;6199502;23;20039;-83
2022/12/26 01:52:38;;;;;;;9.90;6.60;;;11.00;99.90;;;;;;6224909;23;20074;-85
2022/12/26 01:55:11;;;;;;;8.40;6.30;;;11.00;99.90;;;;;;6224095;23;19985;-85
2022/12/26 01:57:40;;;;;;;12.52;6.43;;;10.90;99.90;;;;;;6224493;23;20012;-85
2022/12/26 02:00:07;;;;;;;11.25;6.68;;;10.90;99.90;;;;;;6223983;23;20424;-84
2022/12/26 02:05:32;;;;;;;8.43;5.78;;;10.90;99.90;;;;;;6224619;23;20008;-85
2022/12/26 02:05:33;;;;;;;10.13;6.90;;;10.90;99.90;;;;;;6224348;23;20001;-85
2022/12/26 02:08:21;;;;;;;10.23;6.38;;;10.90;99.90;;;;;;6197789;23;20446;-85
2022/12/26 02:10:55;;;;;;;10.07;6.47;;;10.90;99.90;;;;;;6223685;23;20008;-85
2022/12/26 02:13:22;;;;;;;11.38;6.03;;;10.90;99.90;;;;;;6197488;23;20500;-85
2022/12/26 02:15:48;;;;;;;8.90;6.70;;;10.90;99.90;;;;;;6197637;23;20064;-85
2022/12/26 02:18:14;;;;;;;8.70;5.60;;;10.90;99.90;;;;;;6197432;23;20016;-85
2022/12/26 02:20:52;;;;;;;8.73;6.40;;;10.90;99.90;;;;;;6197311;23;20012;-85
2022/12/26 02:23:51;;;;;;;9.27;6.28;;;10.90;99.90;;;;;;6224059;23;20011;-84
2022/12/26 02:26:20;;;;;;;8.82;6.10;;;10.90;99.90;;;;;;6197116;23;20023;-85
2022/12/26 02:29:01;;;;;;;8.40;5.00;;;10.90;99.90;;;;;;6197413;23;20008;-85
2022/12/26 02:35:07;;;;;;;10.35;6.25;;;10.80;99.90;;;;;;6223801;23;20007;-84
2022/12/26 02:38:07;;;;;;;12.85;6.10;;;10.80;99.90;;;;;;6194727;23;20091;-84
2022/12/26 02:40:47;;;;;;;8.77;5.50;;;10.80;99.90;;;;;;6194207;23;20001;-83
2022/12/26 02:43:22;;;;;;;11.77;5.18;;;10.80;99.90;;;;;;6195558;23;20039;-83
2022/12/26 02:49:28;;;;;;;4.63;3.83;;;10.80;99.90;;;;;;6212475;23;20015;-83
2022/12/26 03:15:26;;;;;;;8.13;3.78;;;10.90;99.90;;;;;;6212577;23;20660;-86
2022/12/26 03:18:04;;;;;;;4.88;3.90;;;10.80;99.90;;;;;;6211313;23;20024;-86
2022/12/26 03:20:34;;;;;;;5.05;3.85;;;10.80;99.90;;;;;;6183911;23;20008;-86
2022/12/26 03:23:05;;;;;;;8.40;5.05;;;10.70;99.90;;;;;;6212533;23;20317;-83
2022/12/26 03:28:39;;;;;;;6.72;4.40;;;10.70;99.90;;;;;;6211844;23;20011;-83
2022/12/26 03:31:08;;;;;;;6.90;4.57;;;10.70;99.90;;;;;;6211040;23;20463;-83
2022/12/26 03:36:30;;;;;;;6.45;5.05;;;10.70;99.90;;;;;;6211741;23;20060;-83
2022/12/26 04:21:05;;;;;;;16.02;11.02;;;10.50;99.90;;;;;;6210274;23;20055;-86
2022/12/26 04:46:24;;;;;;;16.25;11.07;;;10.40;99.90;;;;;;6210524;23;20039;-80
2022/12/26 04:51:36;;;;;;;15.82;11.35;;;10.30;99.90;;;;;;6211102;23;20074;-81
2022/12/26 04:54:03;;;;;;;13.65;11.50;;;10.30;99.90;;;;;;6184286;23;20439;-85
2022/12/26 04:56:29;;;;;;;16.17;11.82;;;10.30;99.90;;;;;;6212087;23;20005;-86
2022/12/26 04:58:54;;;;;;;17.58;12.38;;;10.30;99.90;;;;;;6184887;23;20009;-86
2022/12/26 05:09:33;;;;;;;17.52;13.02;;;10.30;99.90;;;;;;6211209;23;20023;-86
2022/12/26 05:12:00;;;;;;;18.40;13.23;;;10.20;99.90;;;;;;6184976;23;20001;-86
2022/12/26 05:14:26;;;;;;;17.83;14.27;;;10.20;99.90;;;;;;6197310;23;19997;-86
2022/12/26 05:30:44;;;;;;;20.20;13.65;;;10.20;99.90;;;;;;6220692;23;20462;-82
2022/12/26 05:35:54;;;;;;;15.85;12.60;;;10.20;99.90;;;;;;6222130;23;20027;-82
2022/12/26 05:38:19;;;;;;;17.88;13.27;;;10.20;99.90;;;;;;6195515;23;20005;-82
2022/12/26 05:40:45;;;;;;;14.35;12.20;;;10.20;99.90;;;;;;6219758;23;20000;-81
2022/12/26 05:43:10;;;;;;;18.23;12.55;;;10.30;99.90;;;;;;6216505;23;20223;-77
2022/12/26 05:45:36;;;;;;;16.23;12.10;;;10.30;99.90;;;;;;6212711;23;20015;-77
2022/12/26 05:48:02;;;;;;;16.48;12.15;;;10.20;99.90;;;;;;6212039;23;20486;-78
2022/12/26 05:50:28;;;;;;;14.93;12.00;;;10.20;99.90;;;;;;6185189;23;20324;-78
2022/12/26 05:52:56;;;;;;;17.80;13.65;;;10.20;99.90;;;;;;6185673;23;20095;-77
2022/12/26 05:55:26;;;;;;;18.33;13.05;;;10.20;99.90;;;;;;6185691;23;20032;-77
2022/12/26 05:57:55;;;;;;;15.68;12.02;;;10.30;99.90;;;;;;6185970;23;20559;-78
2022/12/26 06:00:20;;;;;;;17.45;12.23;;;10.20;99.90;;;;;;6211468;23;20444;-77
2022/12/26 06:03:03;;;;;;;14.95;11.57;;;10.20;99.90;;;;;;6212327;23;20051;-78
2022/12/26 06:05:32;;;;;;;17.52;12.07;;;10.20;99.90;;;;;;6212272;23;20003;-79
2022/12/26 06:07:57;;;;;;;19.35;12.20;;;10.30;99.90;;;;;;6212245;23;20171;-79
2022/12/26 06:10:25;;;;;;;18.02;11.73;;;10.20;99.90;;;;;;6185240;23;20019;-78
2022/12/26 06:12:52;;;;;;;16.10;12.07;;;10.20;99.90;;;;;;6185647;23;20385;-79
2022/12/26 06:15:17;;;;;;;16.23;11.80;;;10.20;99.90;;;;;;6185305;23;20013;-80
2022/12/26 06:17:43;;;;;;;16.90;12.48;;;10.20;99.90;;;;;;6185289;23;20458;-80
2022/12/26 06:20:09;;;;;;;18.05;12.43;;;10.20;99.90;;;;;;6211185;23;20015;-79
2022/12/26 06:22:35;;;;;;;17.58;12.75;;;10.20;99.90;;;;;;6185123;23;20004;-79
2022/12/26 06:25:01;;;;;;;16.40;12.00;;;10.20;99.90;;;;;;6211865;23;20000;-78
2022/12/26 06:27:26;;;;;;;17.13;12.13;;;10.20;99.90;;;;;;6211854;23;20328;-79
2022/12/26 06:29:52;;;;;;;17.00;12.52;;;10.20;99.90;;;;;;6211082;23;20004;-78
2022/12/26 06:32:18;;;;;;;16.77;11.95;;;10.10;99.90;;;;;;6184867;23;20032;-79
2022/12/26 06:34:43;;;;;;;18.52;12.40;;;10.10;99.90;;;;;;6184876;23;20349;-79
2022/12/26 06:37:09;;;;;;;15.70;11.35;;;10.10;99.90;;;;;;6211215;23;20428;-78
2022/12/26 06:39:34;;;;;;;15.05;11.35;;;10.10;99.90;;;;;;6211104;23;20333;-78
2022/12/26 06:42:00;;;;;;;18.90;11.98;;;10.10;99.90;;;;;;6211689;23;20413;-80
2022/12/26 06:44:25;;;;;;;16.63;10.75;;;10.10;99.90;;;;;;6185339;23;20015;-80
2022/12/26 06:46:51;;;;;;;16.55;11.93;;;10.00;99.90;;;;;;6185151;23;20012;-79
2022/12/26 06:49:16;;;;;;;16.50;11.75;;;10.00;99.90;;;;;;6184921;23;20012;-80
2022/12/26 06:51:43;;;;;;;16.77;12.27;;;10.00;99.90;;;;;;6184982;23;20490;-79
2022/12/26 06:54:09;;;;;;;16.23;12.00;;;10.00;99.90;;;;;;6185158;23;20008;-79
2022/12/26 06:56:36;;;;;;;16.95;11.85;;;10.00;99.90;;;;;;6185201;23;20107;-79
2022/12/26 06:59:03;;;;;;;15.23;10.93;;;10.00;99.90;;;;;;6211622;23;20413;-79
2022/12/26 07:01:32;;;;;;;14.73;10.02;;;9.90;99.90;;;;;;6210520;23;20005;-79
2022/12/26 07:03:59;;;;;;;14.85;10.13;;;10.00;99.90;;;;;;6210943;23;20001;-78
2022/12/26 07:06:32;;;;;;;13.50;10.57;;;10.00;99.90;;;;;;6211813;23;20005;-83
2022/12/26 07:09:08;;;;;;;11.10;8.90;;;10.00;99.90;;;;;;6185884;23;20083;-83
2022/12/26 07:11:37;;;;;;;11.50;8.77;;;9.90;99.90;;;;;;6185111;23;20340;-82
2022/12/26 07:14:03;;;;;;;11.68;8.57;;;10.00;99.90;;;;;;6218789;23;20004;-83
2022/12/26 07:16:30;;;;;;;12.50;8.55;;;10.00;99.90;;;;;;6222599;23;20016;-83
2022/12/26 07:18:57;;;;;;;13.00;8.23;;;10.00;99.90;;;;;;6219748;23;20008;-83
2022/12/26 07:21:24;;;;;;;9.32;7.03;;;10.00;99.90;;;;;;6194100;23;20031;-84
2022/12/26 07:23:55;;;;;;;8.95;7.28;;;10.00;99.90;;;;;;6194143;23;20059;-85
2022/12/26 07:26:22;;;;;;;11.00;7.00;;;10.00;99.90;;;;;;6196019;23;20009;-83
2022/12/26 07:28:48;;;;;;;8.15;6.38;;;10.00;99.90;;;;;;6199105;23;20008;-85
2022/12/26 07:31:18;;;;;;;9.35;6.25;;;9.90;99.90;;;;;;6195534;23;20027;-78
2022/12/26 07:33:48;;;;;;;;;;;9.90;99.90;;;;;;6211285;23;20029;-79
2022/12/26 07:36:14;;;;;;;9.25;6.43;;;9.90;99.90;;;;;;6210963;23;20096;-77
2022/12/26 07:38:40;;;;;;;9.68;7.00;;;9.90;99.90;;;;;;6184453;23;20032;-78
2022/12/26 07:43:50;;;;;;;10.25;5.93;;;9.90;99.90;;;;;;6211417;23;20015;-79
2022/12/26 07:46:16;;;;;;;7.72;5.70;;;9.90;99.90;;;;;;6186913;23;20048;-78
2022/12/26 07:48:45;;;;;;;7.63;5.60;;;9.90;99.90;;;;;;6211979;23;19998;-78
2022/12/26 07:51:13;;;;;;;7.95;5.70;;;9.90;99.90;;;;;;6211067;23;20387;-78
2022/12/26 07:53:39;;;;;;;7.50;5.30;;;9.80;99.90;;;;;;6211901;23;20000;-78
2022/12/26 07:56:08;;;;;;;9.98;6.38;;;9.80;99.90;;;;;;6211401;23;20324;-78
2022/12/26 07:58:34;;;;;;;7.88;5.90;;;9.80;99.90;;;;;;6184754;23;20008;-78
2022/12/26 08:01:01;;;;;;;8.10;6.03;;;9.80;99.90;;;;;;6210474;23;20069;-78
2022/12/26 08:03:30;;;;;;;7.68;6.10;;;9.70;99.90;;;;;;6184464;23;20088;-77
2022/12/26 08:05:56;;;;;;;8.27;6.10;;;9.70;99.90;;;;;;6211120;23;20095;-78
2022/12/26 08:08:22;;;;;;;8.48;6.95;;;9.60;99.90;;;;;;6184429;23;20001;-77
2022/12/26 08:10:48;;;;;;;7.35;5.55;;;9.60;99.90;;;;;;6209843;23;20088;-77
2022/12/26 08:13:13;;;;;;;9.23;6.22;;;9.60;99.90;;;;;;6206484;23;20024;-77
2022/12/26 08:15:40;;;;;;;11.50;6.13;;;9.60;99.90;;;;;;6207091;23;20000;-76
2022/12/26 08:18:06;;;;;;;8.88;6.07;;;9.60;99.90;;;;;;6209473;23;20047;-76
2022/12/26 08:20:35;;;;;;;8.55;5.57;;;9.60;99.90;;;;;;6209073;23;20004;-75
2022/12/26 08:23:01;;;;;;;8.43;6.10;;;9.60;99.90;;;;;;6181607;23;20020;-76
2022/12/26 08:25:27;;;;;;;8.18;5.80;;;9.70;99.90;;;;;;6183016;23;20001;-76
2022/12/26 08:27:52;;;;;;;8.60;6.18;;;9.70;99.90;;;;;;6183446;23;20022;-76
2022/12/26 08:30:18;;;;;;;9.02;5.82;;;9.70;99.90;;;;;;6182631;23;20047;-75
2022/12/26 08:32:44;;;;;;;9.43;6.35;;;9.70;99.90;;;;;;6183442;23;20055;-75
2022/12/26 08:35:09;;;;;;;8.77;6.53;;;9.70;99.90;;;;;;6209509;23;20256;-76
2022/12/26 08:37:37;;;;;;;8.20;5.95;;;9.70;99.90;;;;;;6210251;23;20004;-76
2022/12/26 08:40:04;;;;;;;11.52;7.18;;;9.70;99.90;;;;;;6209871;23;20004;-78
2022/12/26 08:42:29;;;;;;;8.68;5.82;;;9.70;99.90;;;;;;6184271;23;20015;-78
2022/12/26 08:44:55;;;;;;;9.07;6.68;;;9.70;99.90;;;;;;6210584;23;20428;-78
2022/12/26 08:47:25;;;;;;;8.65;6.90;;;9.70;99.90;;;;;;6209743;23;20015;-77
2022/12/26 08:49:50;;;;;;;9.05;7.25;;;9.70;99.90;;;;;;6183559;23;20004;-78
2022/12/26 08:52:16;;;;;;;9.40;7.10;;;9.70;99.90;;;;;;6210610;23;20352;-77
2022/12/26 08:54:42;;;;;;;9.55;6.80;;;9.70;99.90;;;;;;6210329;23;20003;-77
2022/12/26 08:57:08;;;;;;;9.02;7.20;;;9.70;99.90;;;;;;6183948;23;20007;-77
2022/12/26 08:59:33;;;;;;;8.82;6.80;;;9.70;99.90;;;;;;6210252;23;20306;-77
2022/12/26 09:01:59;;;;;;;9.68;7.25;;;9.70;99.90;;;;;;6182575;23;20531;-77
2022/12/26 09:04:28;;;;;;;9.68;7.40;;;9.80;99.90;;;;;;6210148;23;20023;-77
2022/12/26 09:06:53;;;;;;;9.77;7.22;;;9.80;99.90;;;;;;6183623;23;20343;-77
2022/12/26 09:09:19;;;;;;;10.50;8.45;;;9.90;99.90;;;;;;6183309;23;20013;-77
2022/12/26 09:11:45;;;;;;;10.40;7.70;;;9.90;99.90;;;;;;6183830;23;20051;-77
2022/12/26 09:14:11;;;;;;;10.48;7.40;;;9.80;99.90;;;;;;6183814;23;20202;-79
2022/12/26 09:16:41;;;;;;;9.75;7.40;;;9.80;99.90;;;;;;6183800;23;20058;-77
2022/12/26 09:19:11;;;;;;;10.40;7.50;;;9.80;99.90;;;;;;6210054;23;20001;-77
2022/12/26 09:21:40;;;;;;;8.60;6.83;;;9.80;99.90;;;;;;6205966;23;20039;-77
2022/12/26 09:24:10;;;;;;;9.35;7.40;;;9.80;99.90;;;;;;6208519;23;20004;-77
2022/12/26 09:26:36;;;;;;;9.55;7.57;;;9.80;99.90;;;;;;6182037;23;20089;-77
2022/12/26 09:29:02;;;;;;;13.05;8.32;;;9.80;99.90;;;;;;6208602;23;19996;-77
2022/12/26 09:31:30;;;;;;;10.52;7.60;;;9.80;99.90;;;;;;6181021;23;20014;-76
2022/12/26 09:33:57;;;;;;;8.55;7.15;;;9.80;99.90;;;;;;6181510;23;20005;-76
2022/12/26 09:36:25;;;;;;;19.15;8.00;;;9.90;99.90;;;;;;6210628;23;20001;-75
2022/12/26 09:38:51;;;;;;;9.68;6.88;;;9.90;99.90;;;;;;6211081;23;20325;-76
2022/12/26 09:41:32;;;;;;;11.60;7.00;;;9.90;99.90;;;;;;6210436;23;20005;-76
2022/12/26 09:44:23;;;;;;;8.32;6.43;;;9.90;99.90;;;;;;6210817;23;20015;-76
2022/12/26 09:46:51;;;;;;;;;;;10.00;99.90;;;;;;6184244;23;20003;-76
2022/12/26 09:49:33;;;;;;;9.07;5.88;;;10.00;99.90;;;;;;6208947;23;19929;-76
2022/12/26 09:52:10;;;;;;;8.15;6.50;;;10.10;99.90;;;;;;6210201;23;20308;-76
2022/12/26 09:54:59;;;;;;;8.60;6.00;;;10.10;99.90;;;;;;6210831;23;20000;-76
2022/12/26 09:57:44;;;;;;;7.18;5.70;;;10.20;99.90;;;;;;6210538;23;20488;-76
2022/12/26 10:00:26;;;;;;;9.70;6.35;;;10.20;99.90;;;;;;6210205;23;20016;-76
2022/12/26 10:03:15;;;;;;;8.32;6.32;;;10.20;99.90;;;;;;6183765;23;20139;-76
2022/12/26 10:06:08;;;;;;;8.68;5.95;;;10.30;99.90;;;;;;6183295;23;20444;-76
2022/12/26 10:09:12;;;;;;;8.10;5.22;;;10.30;99.90;;;;;;6163828;23;20502;-76
2022/12/26 10:11:54;;;;;;;10.43;6.40;;;10.40;99.90;;;;;;6139770;23;20009;-75
2022/12/26 10:14:51;;;;;;;8.10;5.90;;;10.40;99.90;;;;;;6212247;23;20012;-76
2022/12/26 10:17:34;;;;;;;9.18;6.20;;;10.50;99.90;;;;;;6120404;23;20036;-76
2022/12/26 10:20:06;;;;;;;8.68;6.65;;;10.40;99.90;;;;;;6211617;23;20012;-77
2022/12/26 10:23:09;;;;;;;7.18;5.60;;;10.40;99.90;;;;;;6185387;23;20336;-77
2022/12/26 10:25:50;;;;;;;8.07;5.93;;;10.50;99.90;;;;;;6211380;23;20030;-81
2022/12/26 10:28:30;;;;;;;7.13;6.13;;;10.50;99.90;;;;;;6215927;23;19997;-80
2022/12/26 10:30:59;;;;;;;9.10;6.88;;;10.40;99.90;;;;;;6213051;23;20012;-80
2022/12/26 10:33:40;;;;;;;7.38;5.95;;;10.50;99.90;;;;;;6184787;23;20079;-79
2022/12/26 10:36:16;;;;;;;9.05;5.38;;;10.50;99.90;;;;;;6185124;23;20098;-80
2022/12/26 10:38:45;;;;;;;10.75;5.63;;;10.50;99.90;;;;;;6183956;23;20463;-77
2022/12/26 10:41:23;;;;;;;10.02;5.93;;;10.50;99.90;;;;;;6183039;23;20020;-78
2022/12/26 10:43:48;;;;;;;7.13;5.22;;;10.50;99.90;;;;;;6211243;23;20391;-78
2022/12/26 10:47:08;;;;;;;8.40;5.93;;;10.50;99.90;;;;;;6210338;23;20000;-77
2022/12/26 10:49:36;;;;;;;6.70;5.70;;;10.60;99.90;;;;;;6034313;23;20003;-77
2022/12/26 10:52:03;;;;;;;8.90;6.40;;;10.60;99.90;;;;;;6174772;23;20087;-77
2022/12/26 10:54:29;;;;;;;7.72;5.78;;;10.60;99.90;;;;;;6210836;23;20004;-77
2022/12/26 10:56:57;;;;;;;7.13;5.80;;;10.60;99.90;;;;;;6210983;23;20317;-77
2022/12/26 10:59:35;;;;;;;8.35;6.00;;;10.60;99.90;;;;;;6209992;23;20405;-77
2022/12/26 11:02:30;;;;;;;10.13;5.97;;;10.70;99.90;;;;;;6187701;23;20032;-77
2022/12/26 11:04:57;;;;;;;8.75;6.25;;;10.70;99.90;;;;;;6182175;23;20012;-77
2022/12/26 11:07:26;;;;;;;8.60;5.65;;;10.80;99.90;;;;;;6183573;23;20347;-78
2022/12/26 11:09:57;;;;;;;7.93;5.40;;;10.80;99.90;;;;;;6183184;23;20095;-77
2022/12/26 11:12:41;;;;;;;6.40;5.72;;;10.90;99.90;;;;;;6184125;23;20015;-77
2022/12/26 11:15:17;;;;;;;9.90;5.80;;;10.90;99.90;;;;;;6208189;23;20420;-77
2022/12/26 11:17:54;;;;;;;5.82;4.90;;;10.90;99.90;;;;;;6183630;23;20472;-77
2022/12/26 11:20:29;;;;;;;8.30;5.35;;;11.00;99.90;;;;;;6183194;23;20020;-77
2022/12/26 11:23:21;;;;;;;7.93;5.28;;;10.90;99.90;;;;;;6183207;23;20008;-77
2022/12/26 11:26:01;;;;;;;6.10;5.22;;;10.90;99.90;;;;;;6183565;23;20091;-78
2022/12/26 11:28:33;;;;;;;8.02;5.32;;;11.00;99.90;;;;;;6183757;23;20004;-77
2022/12/26 11:31:02;;;;;;;8.63;5.38;;;11.00;99.90;;;;;;6183097;23;19997;-77
2022/12/26 11:33:43;;;;;;;8.05;4.97;;;11.10;99.90;;;;;;6182811;23;20058;-77
2022/12/26 11:36:15;;;;;;;6.15;5.55;;;11.20;99.90;;;;;;6183133;23;20004;-77
2022/12/26 11:38:53;;;;;;;6.70;5.53;;;11.10;99.90;;;;;;6209804;23;20016;-77
2022/12/26 11:41:30;;;;;;;6.90;5.50;;;11.20;99.90;;;;;;6182675;23;20379;-77
2022/12/26 11:44:14;;;;;;;7.32;4.88;;;11.30;99.90;;;;;;6209664;23;20008;-77
2022/12/26 11:46:48;;;;;;;5.28;4.78;;;11.40;99.90;;;;;;6183129;23;20440;-78
2022/12/26 11:49:20;;;;;;;7.47;5.15;;;11.40;99.90;;;;;;6182436;23;20371;-77
2022/12/26 11:51:48;;;;;;;8.02;4.60;;;11.50;99.90;;;;;;6183766;23;20028;-77
2022/12/26 11:54:21;;;;;;;6.63;4.75;;;11.50;99.90;;;;;;6209424;23;20009;-77
2022/12/26 11:56:48;;;;;;;5.90;4.80;;;11.50;99.90;;;;;;6218331;23;20368;-77
2022/12/26 11:59:22;;;;;;;5.03;4.50;;;11.50;99.90;;;;;;6220661;23;20005;-76
2022/12/26 12:02:09;;;;;;;6.50;5.15;;;11.60;99.90;;;;;;6220124;23;20011;-77
2022/12/26 12:04:34;;;;;;;6.35;4.10;;;11.70;99.90;;;;;;6220679;23;20004;-77
2022/12/26 12:07:14;;;;;;;5.45;4.05;;;11.80;99.90;;;;;;6195870;23;20012;-77
2022/12/26 12:09:48;;;;;;;8.77;4.43;;;11.90;99.90;;;;;;6218586;23;20011;-76
2022/12/26 12:12:50;;;;;;;4.45;4.00;;;11.90;99.90;;;;;;6193385;23;20008;-78
2022/12/26 12:15:31;;;;;;;5.05;4.13;;;11.90;99.90;;;;;;6161522;23;20450;-78
2022/12/26 12:18:28;;;;;;;8.60;4.30;;;11.70;99.90;;;;;;6188730;23;20088;-76
2022/12/26 12:21:13;;;;;;;5.38;4.22;;;11.70;99.90;;;;;;6183108;23;20364;-77
2022/12/26 12:24:27;;;;;;;5.47;4.35;;;11.70;99.90;;;;;;6206596;23;20032;-81
2022/12/26 12:27:25;;;;;;;5.53;4.10;;;11.70;99.90;;;;;;6058541;23;20350;-78
2022/12/26 12:30:14;;;;;;;3.65;3.30;;;11.60;99.90;;;;;;6209049;23;20005;-77
2022/12/26 12:32:55;;;;;;;4.80;4.00;;;11.50;99.90;;;;;;6210580;23;20011;-78
2022/12/26 12:35:49;;;;;;;5.18;3.92;;;11.50;99.90;;;;;;6210682;23;20040;-78
2022/12/26 12:38:29;;;;;;;5.82;4.15;;;11.50;99.90;;;;;;6214026;23;20344;-77
2022/12/26 12:41:05;;;;;;;6.30;3.78;;;11.50;99.90;;;;;;6187495;23;20007;-78
2022/12/26 12:43:48;;;;;;;6.38;3.55;;;11.50;99.90;;;;;;6188929;23;20008;-78
2022/12/26 12:46:25;;;;;;;6.05;3.25;;;11.50;99.90;;;;;;6188857;23;20480;-78
2022/12/26 12:49:06;;;;;;;4.93;3.47;;;11.50;99.90;;;;;;6189050;23;20011;-79
2022/12/26 12:52:07;;;;;;;8.07;4.10;;;11.50;99.90;;;;;;6215275;23;20378;-78
2022/12/26 12:54:44;;;;;;;5.75;3.30;;;11.50;99.90;;;;;;6188205;23;20004;-80
2022/12/26 12:57:46;;;;;;;6.53;3.30;;;11.50;99.90;;;;;;6214593;23;20001;-80
2022/12/26 13:00:26;;;;;;;5.15;2.78;;;11.50;99.90;;;;;;6088386;23;20012;-80
2022/12/26 13:03:44;;;;;;;10.20;3.65;;;11.50;99.90;;;;;;6187686;23;20343;-80
2022/12/26 13:09:56;;;;;;;10.95;4.13;;;11.40;99.90;;;;;;6209035;23;20087;-80
2022/12/26 13:12:44;;;;;;;5.35;3.28;;;11.20;99.90;;;;;;6187395;23;20015;-80
2022/12/26 13:15:41;;;;;;;5.22;3.40;;;11.00;99.90;;;;;;6187328;23;20012;-79
2022/12/26 13:18:14;;;;;;;5.53;3.47;;;10.90;99.90;;;;;;6185032;23;20572;-80
2022/12/26 13:20:48;;;;;;;4.85;3.85;;;10.70;99.90;;;;;;6211768;23;20277;-79
2022/12/26 13:26:29;;;;;;;4.25;3.38;;;10.60;99.90;;;;;;6211986;23;20557;-79
2022/12/26 13:29:19;;;;;;;4.82;3.15;;;10.60;99.90;;;;;;6185250;23;20344;-79
2022/12/26 13:31:45;;;;;;;8.43;3.42;;;10.60;99.90;;;;;;6212057;23;20432;-79
2022/12/26 13:34:19;;;;;;;6.63;3.05;;;10.60;99.90;;;;;;6188038;23;20009;-80
2022/12/26 13:36:51;;;;;;;5.13;2.70;;;10.70;99.90;;;;;;6214819;23;20087;-81
2022/12/26 13:39:22;;;;;;;4.85;2.80;;;10.80;99.90;;;;;;6187833;23;20021;-80
2022/12/26 13:44:45;;;;;;;4.22;2.80;;;10.90;99.90;;;;;;6215188;23;20015;-80
2022/12/26 13:47:33;;;;;;;5.43;3.42;;;10.90;99.90;;;;;;6189033;23;20032;-80
2022/12/26 13:50:37;;;;;;;5.93;3.47;;;11.00;99.90;;;;;;6189909;23;20432;-81
2022/12/26 13:53:04;;;;;;;5.93;2.83;;;11.00;99.90;;;;;;6190146;23;20522;-80
2022/12/26 13:55:40;;;;;;;5.43;3.13;;;11.00;99.90;;;;;;6189942;23;20004;-80
2022/12/26 13:58:21;;;;;;;5.10;2.30;;;11.10;99.90;;;;;;6187448;23;20020;-80
2022/12/26 14:00:48;;;;;;;6.13;2.97;;;11.10;99.90;;;;;;6189935;23;20572;-80
2022/12/26 14:03:26;;;;;;;3.88;2.38;;;11.10;99.90;;;;;;6216222;23;20007;-80
2022/12/26 14:06:17;;;;;;;3.78;2.60;;;11.20;99.90;;;;;;6190615;23;20004;-79
2022/12/26 14:08:57;;;;;;;3.88;2.28;;;11.10;99.90;;;;;;6215169;23;19996;-78
2022/12/26 14:11:40;;;;;;;5.57;2.85;;;11.10;99.90;;;;;;6185504;23;20344;-78
2022/12/26 14:14:27;;;;;;;5.65;2.63;;;11.10;99.90;;;;;;6186547;23;20005;-78
2022/12/26 14:16:57;;;;;;;6.10;2.90;;;11.10;99.90;;;;;;6186460;23;20087;-79
2022/12/26 14:19:55;;;;;;;3.83;2.50;;;11.10;99.90;;;;;;6212482;23;20000;-78
2022/12/26 14:22:47;;;;;;;3.55;2.55;;;11.10;99.90;;;;;;6185923;23;20386;-79
2022/12/26 14:25:18;;;;;;;5.85;1.95;;;11.10;99.90;;;;;;6213143;23;20005;-78
2022/12/26 14:27:56;;;;;;;5.13;2.33;;;11.10;99.90;;;;;;6213114;23;20067;-79
2022/12/26 14:30:48;;;;;;;5.38;1.95;;;11.00;99.90;;;;;;6185589;23;20076;-79
2022/12/26 14:33:27;;;;;;;4.22;2.03;;;11.00;99.90;;;;;;6186079;23;20000;-79
2022/12/26 14:36:18;;;;;;;6.93;1.90;;;11.10;99.90;;;;;;6186471;23;20084;-81
2022/12/26 14:39:04;;;;;;;5.80;2.05;;;11.00;99.90;;;;;;6185906;23;20000;-78
2022/12/26 14:44:51;;;;;;;1.52;1.08;;;11.00;99.90;;;;;;6212799;23;20020;-78
2022/12/26 14:47:36;;;;;;;2.78;1.23;;;10.20;99.90;;;;;;6186070;23;20004;-78
2022/12/26 14:50:37;;;;;;;1.45;1.00;;;9.70;99.90;;;;;;6212147;23;20447;-79
2022/12/26 14:53:28;;;;;;;2.42;1.25;;;9.30;99.90;;;;;;6185660;23;20004;-79
2022/12/26 14:55:55;;;;;;;3.65;1.45;;;9.10;99.90;;;;;;6185895;23;20005;-78
2022/12/26 14:58:38;;;;;;;3.00;1.60;;;9.00;99.90;;;;;;6185425;23;20329;-78
2022/12/26 15:01:19;;;;;;;6.07;1.83;;;8.90;99.90;;;;;;6212038;23;20050;-78
2022/12/26 15:03:59;;;;;;;2.58;2.10;;;8.80;99.90;;;;;;6185773;23;20005;-79
2022/12/26 15:06:37;;;;;;;4.22;2.35;;;8.80;99.90;;;;;;6185987;23;20036;-79
2022/12/26 15:09:41;;;;;;;3.15;2.10;;;8.70;99.90;;;;;;6185767;23;20003;-79
2022/12/26 15:12:37;;;;;;;5.00;2.60;;;8.80;99.90;;;;;;6062588;23;20039;-79
2022/12/26 15:15:31;;;;;;;3.88;2.90;;;8.70;99.90;;;;;;6063085;23;20018;-80
2022/12/26 15:18:18;;;;;;;6.05;3.13;;;8.70;99.90;;;;;;6166214;23;20004;-79
2022/12/26 15:20:50;;;;;;;7.13;3.10;;;8.80;99.90;;;;;;6210911;23;20148;-79
2022/12/26 15:23:18;;;;;;;4.95;2.90;;;8.70;99.90;;;;;;6210384;23;20005;-79
2022/12/26 15:26:06;;;;;;;4.53;3.33;;;8.80;99.90;;;;;;6212411;23;20027;-79
2022/12/26 15:28:49;;;;;;;5.28;3.13;;;8.80;99.90;;;;;;6185723;23;20009;-79
2022/12/26 15:31:33;;;;;;;6.00;3.20;;;8.70;99.90;;;;;;6185175;23;20007;-79
2022/12/26 15:34:11;;;;;;;6.75;2.83;;;8.70;99.90;;;;;;6212499;23;20059;-76
2022/12/26 15:36:55;;;;;;;5.65;2.80;;;8.70;99.90;;;;;;6212262;23;20343;-78
2022/12/26 15:39:53;;;;;;;9.43;3.03;;;8.70;99.90;;;;;;6211471;23;20084;-78
2022/12/26 15:42:24;;;;;;;5.70;3.08;;;8.70;99.90;;;;;;6185456;23;20004;-78
2022/12/26 15:45:05;;;;;;;6.80;2.95;;;8.70;99.90;;;;;;6185510;23;20037;-78